sensor_id;sensor_type;location;lat;lon;timestamp;P1;durP1;ratioP1;P2;durP2;ratioP2
5452;SDS011;2749;53.576;9.822;2023-02-28T00:01:33;4.90;;;3.10;;
5452;SDS011;2749;53.576;9.822;2023-02-28T00:03:59;2.33;;;1.93;;
5452;SDS011;2749;53.576;9.822;2023-02-28T00:06:25;5.53;;;2.53;;
5452;SDS011;2749;53.576;9.822;2023-02-28T00:08:51;3.50;;;1.93;;
5452;SDS011;2749;53.576;9.822;2023-02-28T00:11:17;9.40;;;3.40;;
5452;SDS011;2749;53.576;9.822;2023-02-28T00:13:44;3.90;;;2.70;;
5452;SDS011;2749;53.576;9.822;2023-02-28T00:16:14;3.90;;;2.10;;
5452;SDS011;2749;53.576;9.822;2023-02-28T00:18:41;4.80;;;2.60;;
5452;SDS011;2749;53.576;9.822;2023-02-28T00:21:07;3.87;;;2.70;;
5452;SDS011;2749;53.576;9.822;2023-02-28T00:23:33;2.70;;;1.77;;
5452;SDS011;2749;53.576;9.822;2023-02-28T00:25:59;3.40;;;2.40;;
5452;SDS011;2749;53.576;9.822;2023-02-28T00:28:25;4.60;;;2.57;;
5452;SDS011;2749;53.576;9.822;2023-02-28T00:30:51;4.23;;;2.03;;
5452;SDS011;2749;53.576;9.822;2023-02-28T00:33:17;3.43;;;2.30;;
5452;SDS011;2749;53.576;9.822;2023-02-28T00:35:43;3.80;;;3.07;;
5452;SDS011;2749;53.576;9.822;2023-02-28T00:38:11;3.60;;;2.83;;
5452;SDS011;2749;53.576;9.822;2023-02-28T00:40:37;14.20;;;6.80;;
5452;SDS011;2749;53.576;9.822;2023-02-28T00:43:03;5.20;;;3.57;;
5452;SDS011;2749;53.576;9.822;2023-02-28T00:45:29;7.30;;;2.97;;
5452;SDS011;2749;53.576;9.822;2023-02-28T00:47:55;5.83;;;3.10;;
5452;SDS011;2749;53.576;9.822;2023-02-28T00:50:21;3.00;;;2.70;;
5452;SDS011;2749;53.576;9.822;2023-02-28T00:52:47;3.43;;;2.33;;
5452;SDS011;2749;53.576;9.822;2023-02-28T00:55:13;4.97;;;2.97;;
5452;SDS011;2749;53.576;9.822;2023-02-28T00:57:39;6.93;;;2.80;;
5452;SDS011;2749;53.576;9.822;2023-02-28T01:00:06;5.20;;;3.13;;
5452;SDS011;2749;53.576;9.822;2023-02-28T01:02:32;5.40;;;2.93;;
5452;SDS011;2749;53.576;9.822;2023-02-28T01:04:58;3.77;;;2.23;;
5452;SDS011;2749;53.576;9.822;2023-02-28T01:07:24;3.03;;;2.70;;
5452;SDS011;2749;53.576;9.822;2023-02-28T01:09:50;3.77;;;2.03;;
5452;SDS011;2749;53.576;9.822;2023-02-28T01:12:16;4.13;;;2.30;;
5452;SDS011;2749;53.576;9.822;2023-02-28T01:14:42;4.47;;;2.67;;
5452;SDS011;2749;53.576;9.822;2023-02-28T01:17:08;7.17;;;2.77;;
5452;SDS011;2749;53.576;9.822;2023-02-28T01:19:34;5.80;;;2.80;;
5452;SDS011;2749;53.576;9.822;2023-02-28T01:22:01;4.67;;;2.30;;
5452;SDS011;2749;53.576;9.822;2023-02-28T01:24:27;3.73;;;2.70;;
5452;SDS011;2749;53.576;9.822;2023-02-28T01:26:53;4.40;;;2.37;;
5452;SDS011;2749;53.576;9.822;2023-02-28T01:29:19;5.90;;;3.33;;
5452;SDS011;2749;53.576;9.822;2023-02-28T01:31:45;4.27;;;2.80;;
5452;SDS011;2749;53.576;9.822;2023-02-28T01:34:11;3.10;;;2.07;;
5452;SDS011;2749;53.576;9.822;2023-02-28T01:36:37;2.77;;;2.57;;
5452;SDS011;2749;53.576;9.822;2023-02-28T01:39:03;4.70;;;2.80;;
5452;SDS011;2749;53.576;9.822;2023-02-28T01:41:30;5.80;;;3.13;;
5452;SDS011;2749;53.576;9.822;2023-02-28T01:43:57;4.13;;;2.70;;
5452;SDS011;2749;53.576;9.822;2023-02-28T01:46:24;6.30;;;3.37;;
5452;SDS011;2749;53.576;9.822;2023-02-28T01:51:25;3.73;;;3.13;;
5452;SDS011;2749;53.576;9.822;2023-02-28T01:53:53;3.83;;;3.03;;
5452;SDS011;2749;53.576;9.822;2023-02-28T01:56:22;4.67;;;3.63;;
5452;SDS011;2749;53.576;9.822;2023-02-28T01:58:49;6.90;;;2.73;;
5452;SDS011;2749;53.576;9.822;2023-02-28T02:01:16;2.37;;;2.17;;
5452;SDS011;2749;53.576;9.822;2023-02-28T02:03:46;4.70;;;3.10;;
5452;SDS011;2749;53.576;9.822;2023-02-28T02:06:12;4.83;;;2.57;;
5452;SDS011;2749;53.576;9.822;2023-02-28T02:08:38;5.80;;;3.40;;
5452;SDS011;2749;53.576;9.822;2023-02-28T02:11:04;2.67;;;2.47;;
5452;SDS011;2749;53.576;9.822;2023-02-28T02:16:15;3.80;;;2.23;;
5452;SDS011;2749;53.576;9.822;2023-02-28T02:18:46;3.60;;;2.83;;
5452;SDS011;2749;53.576;9.822;2023-02-28T02:32:14;3.03;;;2.73;;
5452;SDS011;2749;53.576;9.822;2023-02-28T02:34:54;5.33;;;3.10;;
5452;SDS011;2749;53.576;9.822;2023-02-28T02:37:27;6.60;;;2.60;;
5452;SDS011;2749;53.576;9.822;2023-02-28T02:42:27;2.40;;;2.20;;
5452;SDS011;2749;53.576;9.822;2023-02-28T02:44:59;3.30;;;2.20;;
5452;SDS011;2749;53.576;9.822;2023-02-28T02:47:26;5.77;;;2.50;;
5452;SDS011;2749;53.576;9.822;2023-02-28T02:49:53;2.40;;;2.07;;
5452;SDS011;2749;53.576;9.822;2023-02-28T02:52:22;5.40;;;2.47;;
5452;SDS011;2749;53.576;9.822;2023-02-28T02:54:49;5.57;;;3.40;;
5452;SDS011;2749;53.576;9.822;2023-02-28T02:57:20;3.83;;;2.00;;
5452;SDS011;2749;53.576;9.822;2023-02-28T02:59:48;4.23;;;2.60;;
5452;SDS011;2749;53.576;9.822;2023-02-28T03:02:15;3.47;;;2.27;;
5452;SDS011;2749;53.576;9.822;2023-02-28T03:04:43;3.40;;;2.70;;
5452;SDS011;2749;53.576;9.822;2023-02-28T03:07:10;4.10;;;2.30;;
5452;SDS011;2749;53.576;9.822;2023-02-28T03:09:37;2.20;;;1.97;;
5452;SDS011;2749;53.576;9.822;2023-02-28T03:12:03;3.57;;;2.73;;
5452;SDS011;2749;53.576;9.822;2023-02-28T03:19:58;4.57;;;2.77;;
5452;SDS011;2749;53.576;9.822;2023-02-28T03:22:59;4.23;;;2.70;;
5452;SDS011;2749;53.576;9.822;2023-02-28T03:25:27;8.80;;;3.20;;
5452;SDS011;2749;53.576;9.822;2023-02-28T03:28:04;2.77;;;2.57;;
5452;SDS011;2749;53.576;9.822;2023-02-28T03:30:33;3.10;;;2.50;;
5452;SDS011;2749;53.576;9.822;2023-02-28T03:33:03;5.23;;;2.50;;
5452;SDS011;2749;53.576;9.822;2023-02-28T03:35:32;6.30;;;3.13;;
5452;SDS011;2749;53.576;9.822;2023-02-28T03:38:06;6.87;;;3.27;;
5452;SDS011;2749;53.576;9.822;2023-02-28T03:40:34;4.97;;;3.03;;
5452;SDS011;2749;53.576;9.822;2023-02-28T03:43:04;2.97;;;2.67;;
5452;SDS011;2749;53.576;9.822;2023-02-28T03:45:33;4.53;;;3.20;;
5452;SDS011;2749;53.576;9.822;2023-02-28T03:48:08;3.13;;;2.83;;
5452;SDS011;2749;53.576;9.822;2023-02-28T03:50:38;5.53;;;3.00;;
5452;SDS011;2749;53.576;9.822;2023-02-28T03:55:39;3.30;;;2.87;;
5452;SDS011;2749;53.576;9.822;2023-02-28T03:58:24;3.03;;;2.70;;
5452;SDS011;2749;53.576;9.822;2023-02-28T04:00:54;3.90;;;2.90;;
5452;SDS011;2749;53.576;9.822;2023-02-28T04:03:21;10.33;;;2.87;;
5452;SDS011;2749;53.576;9.822;2023-02-28T04:05:54;4.00;;;3.20;;
5452;SDS011;2749;53.576;9.822;2023-02-28T04:08:21;3.97;;;2.77;;
5452;SDS011;2749;53.576;9.822;2023-02-28T04:11:34;7.20;;;4.07;;
5452;SDS011;2749;53.576;9.822;2023-02-28T04:13:33;5.07;;;3.43;;
5452;SDS011;2749;53.576;9.822;2023-02-28T04:16:00;8.77;;;4.30;;
5452;SDS011;2749;53.576;9.822;2023-02-28T04:18:26;5.60;;;3.00;;
5452;SDS011;2749;53.576;9.822;2023-02-28T04:20:51;3.73;;;3.27;;
5452;SDS011;2749;53.576;9.822;2023-02-28T04:23:17;7.57;;;4.20;;
5452;SDS011;2749;53.576;9.822;2023-02-28T04:25:43;6.17;;;3.23;;
5452;SDS011;2749;53.576;9.822;2023-02-28T04:28:09;5.20;;;3.80;;
5452;SDS011;2749;53.576;9.822;2023-02-28T04:30:35;6.70;;;4.00;;
5452;SDS011;2749;53.576;9.822;2023-02-28T04:33:03;6.07;;;3.77;;
5452;SDS011;2749;53.576;9.822;2023-02-28T04:35:29;8.30;;;3.63;;
5452;SDS011;2749;53.576;9.822;2023-02-28T04:37:55;7.93;;;4.30;;
5452;SDS011;2749;53.576;9.822;2023-02-28T04:40:21;4.83;;;3.40;;
5452;SDS011;2749;53.576;9.822;2023-02-28T04:42:46;6.17;;;2.83;;
5452;SDS011;2749;53.576;9.822;2023-02-28T04:45:12;3.80;;;3.33;;
5452;SDS011;2749;53.576;9.822;2023-02-28T04:47:38;3.50;;;2.80;;
5452;SDS011;2749;53.576;9.822;2023-02-28T04:50:04;6.93;;;3.73;;
5452;SDS011;2749;53.576;9.822;2023-02-28T04:52:30;4.90;;;3.67;;
5452;SDS011;2749;53.576;9.822;2023-02-28T04:54:56;7.63;;;3.97;;
5452;SDS011;2749;53.576;9.822;2023-02-28T04:57:22;4.37;;;3.63;;
5452;SDS011;2749;53.576;9.822;2023-02-28T04:59:48;6.50;;;4.03;;
5452;SDS011;2749;53.576;9.822;2023-02-28T05:02:14;4.90;;;4.50;;
5452;SDS011;2749;53.576;9.822;2023-02-28T05:04:40;6.80;;;4.50;;
5452;SDS011;2749;53.576;9.822;2023-02-28T05:07:06;3.50;;;3.20;;
5452;SDS011;2749;53.576;9.822;2023-02-28T05:09:31;6.13;;;3.40;;
5452;SDS011;2749;53.576;9.822;2023-02-28T05:11:58;6.90;;;4.43;;
5452;SDS011;2749;53.576;9.822;2023-02-28T05:14:24;4.80;;;3.43;;
5452;SDS011;2749;53.576;9.822;2023-02-28T05:16:50;4.53;;;3.50;;
5452;SDS011;2749;53.576;9.822;2023-02-28T05:19:16;4.03;;;3.47;;
5452;SDS011;2749;53.576;9.822;2023-02-28T05:21:52;7.43;;;3.83;;
5452;SDS011;2749;53.576;9.822;2023-02-28T05:24:18;4.40;;;4.00;;
5452;SDS011;2749;53.576;9.822;2023-02-28T05:26:47;6.60;;;5.10;;
5452;SDS011;2749;53.576;9.822;2023-02-28T05:29:13;16.60;;;4.80;;
5452;SDS011;2749;53.576;9.822;2023-02-28T05:31:39;8.47;;;4.90;;
5452;SDS011;2749;53.576;9.822;2023-02-28T05:34:05;5.03;;;4.53;;
5452;SDS011;2749;53.576;9.822;2023-02-28T05:36:31;4.90;;;4.17;;
5452;SDS011;2749;53.576;9.822;2023-02-28T05:38:57;5.30;;;4.83;;
5452;SDS011;2749;53.576;9.822;2023-02-28T05:41:23;6.67;;;4.10;;
5452;SDS011;2749;53.576;9.822;2023-02-28T05:43:49;8.03;;;4.40;;
5452;SDS011;2749;53.576;9.822;2023-02-28T05:46:15;5.87;;;4.60;;
5452;SDS011;2749;53.576;9.822;2023-02-28T05:48:42;8.07;;;5.00;;
5452;SDS011;2749;53.576;9.822;2023-02-28T05:51:08;8.47;;;5.53;;
5452;SDS011;2749;53.576;9.822;2023-02-28T05:53:34;5.43;;;3.63;;
5452;SDS011;2749;53.576;9.822;2023-02-28T05:56:00;11.37;;;4.37;;
5452;SDS011;2749;53.576;9.822;2023-02-28T05:58:26;7.63;;;4.17;;
5452;SDS011;2749;53.576;9.822;2023-02-28T06:00:56;8.40;;;5.07;;
5452;SDS011;2749;53.576;9.822;2023-02-28T06:03:23;5.00;;;4.50;;
5452;SDS011;2749;53.576;9.822;2023-02-28T06:05:49;8.87;;;4.93;;
5452;SDS011;2749;53.576;9.822;2023-02-28T06:08:15;6.90;;;5.03;;
5452;SDS011;2749;53.576;9.822;2023-02-28T06:10:41;10.03;;;5.20;;
5452;SDS011;2749;53.576;9.822;2023-02-28T06:13:07;5.07;;;4.57;;
5452;SDS011;2749;53.576;9.822;2023-02-28T06:15:33;7.03;;;4.40;;
5452;SDS011;2749;53.576;9.822;2023-02-28T06:17:59;6.77;;;5.30;;
5452;SDS011;2749;53.576;9.822;2023-02-28T06:20:26;5.80;;;4.77;;
5452;SDS011;2749;53.576;9.822;2023-02-28T06:22:54;9.73;;;4.47;;
5452;SDS011;2749;53.576;9.822;2023-02-28T06:25:20;5.50;;;4.43;;
5452;SDS011;2749;53.576;9.822;2023-02-28T06:27:47;9.30;;;4.33;;
5452;SDS011;2749;53.576;9.822;2023-02-28T06:30:13;6.20;;;4.40;;
5452;SDS011;2749;53.576;9.822;2023-02-28T06:32:39;6.67;;;5.97;;
5452;SDS011;2749;53.576;9.822;2023-02-28T06:35:05;7.23;;;4.87;;
5452;SDS011;2749;53.576;9.822;2023-02-28T06:37:32;8.03;;;4.10;;
5452;SDS011;2749;53.576;9.822;2023-02-28T06:39:58;8.73;;;4.70;;
5452;SDS011;2749;53.576;9.822;2023-02-28T06:42:24;5.57;;;3.67;;
5452;SDS011;2749;53.576;9.822;2023-02-28T06:44:56;5.70;;;4.10;;
5452;SDS011;2749;53.576;9.822;2023-02-28T06:47:22;6.23;;;4.00;;
5452;SDS011;2749;53.576;9.822;2023-02-28T06:49:48;6.30;;;3.90;;
5452;SDS011;2749;53.576;9.822;2023-02-28T06:52:14;9.17;;;4.10;;
5452;SDS011;2749;53.576;9.822;2023-02-28T06:54:40;7.87;;;5.07;;
5452;SDS011;2749;53.576;9.822;2023-02-28T06:57:07;5.10;;;3.67;;
5452;SDS011;2749;53.576;9.822;2023-02-28T06:59:33;5.40;;;4.57;;
5452;SDS011;2749;53.576;9.822;2023-02-28T07:02:00;5.73;;;4.47;;
5452;SDS011;2749;53.576;9.822;2023-02-28T07:04:27;8.27;;;3.97;;
5452;SDS011;2749;53.576;9.822;2023-02-28T07:06:52;5.30;;;3.17;;
5452;SDS011;2749;53.576;9.822;2023-02-28T07:09:20;3.83;;;3.03;;
5452;SDS011;2749;53.576;9.822;2023-02-28T07:11:46;3.73;;;3.37;;
5452;SDS011;2749;53.576;9.822;2023-02-28T07:14:12;5.50;;;3.70;;
5452;SDS011;2749;53.576;9.822;2023-02-28T07:16:38;5.53;;;4.00;;
5452;SDS011;2749;53.576;9.822;2023-02-28T07:19:04;8.70;;;3.97;;
5452;SDS011;2749;53.576;9.822;2023-02-28T07:21:30;4.10;;;3.70;;
5452;SDS011;2749;53.576;9.822;2023-02-28T07:23:56;4.50;;;3.30;;
5452;SDS011;2749;53.576;9.822;2023-02-28T07:26:22;3.27;;;3.00;;
5452;SDS011;2749;53.576;9.822;2023-02-28T07:28:48;8.10;;;3.07;;
5452;SDS011;2749;53.576;9.822;2023-02-28T07:31:15;5.03;;;3.17;;
5452;SDS011;2749;53.576;9.822;2023-02-28T07:33:42;4.63;;;3.13;;
5452;SDS011;2749;53.576;9.822;2023-02-28T07:36:12;9.73;;;3.47;;
5452;SDS011;2749;53.576;9.822;2023-02-28T07:38:40;3.77;;;3.10;;
5452;SDS011;2749;53.576;9.822;2023-02-28T07:41:06;5.23;;;3.03;;
5452;SDS011;2749;53.576;9.822;2023-02-28T07:43:33;3.30;;;2.70;;
5452;SDS011;2749;53.576;9.822;2023-02-28T07:46:03;3.40;;;2.83;;
5452;SDS011;2749;53.576;9.822;2023-02-28T07:48:29;3.93;;;3.03;;
5452;SDS011;2749;53.576;9.822;2023-02-28T07:50:56;6.20;;;2.60;;
5452;SDS011;2749;53.576;9.822;2023-02-28T07:53:22;2.67;;;2.47;;
5452;SDS011;2749;53.576;9.822;2023-02-28T07:55:48;3.13;;;2.40;;
5452;SDS011;2749;53.576;9.822;2023-02-28T07:58:14;3.17;;;2.47;;
5452;SDS011;2749;53.576;9.822;2023-02-28T08:00:40;5.00;;;2.23;;
5452;SDS011;2749;53.576;9.822;2023-02-28T08:03:06;2.57;;;2.30;;
5452;SDS011;2749;53.576;9.822;2023-02-28T08:05:31;2.33;;;2.13;;
5452;SDS011;2749;53.576;9.822;2023-02-28T08:07:57;2.53;;;1.90;;
5452;SDS011;2749;53.576;9.822;2023-02-28T08:10:23;2.33;;;1.57;;
5452;SDS011;2749;53.576;9.822;2023-02-28T08:12:49;4.07;;;1.93;;
5452;SDS011;2749;53.576;9.822;2023-02-28T08:15:15;3.83;;;1.60;;
5452;SDS011;2749;53.576;9.822;2023-02-28T08:17:41;1.93;;;1.73;;
5452;SDS011;2749;53.576;9.822;2023-02-28T08:20:07;6.87;;;3.67;;
5452;SDS011;2749;53.576;9.822;2023-02-28T08:22:35;2.23;;;1.67;;
5452;SDS011;2749;53.576;9.822;2023-02-28T08:25:01;2.50;;;1.70;;
5452;SDS011;2749;53.576;9.822;2023-02-28T08:27:27;6.70;;;1.47;;
5452;SDS011;2749;53.576;9.822;2023-02-28T08:29:52;2.97;;;1.17;;
5452;SDS011;2749;53.576;9.822;2023-02-28T08:32:18;1.40;;;1.10;;
5452;SDS011;2749;53.576;9.822;2023-02-28T08:34:44;1.60;;;1.07;;
5452;SDS011;2749;53.576;9.822;2023-02-28T08:37:10;1.80;;;1.40;;
5452;SDS011;2749;53.576;9.822;2023-02-28T08:39:36;2.43;;;1.27;;
5452;SDS011;2749;53.576;9.822;2023-02-28T08:42:02;3.30;;;1.20;;
5452;SDS011;2749;53.576;9.822;2023-02-28T08:44:29;1.37;;;1.00;;
5452;SDS011;2749;53.576;9.822;2023-02-28T08:46:54;1.80;;;1.17;;
5452;SDS011;2749;53.576;9.822;2023-02-28T08:49:20;3.43;;;1.27;;
5452;SDS011;2749;53.576;9.822;2023-02-28T08:51:46;5.80;;;1.33;;
5452;SDS011;2749;53.576;9.822;2023-02-28T08:54:12;1.67;;;0.90;;
5452;SDS011;2749;53.576;9.822;2023-02-28T08:56:40;1.20;;;0.93;;
5452;SDS011;2749;53.576;9.822;2023-02-28T08:59:08;1.80;;;1.03;;
5452;SDS011;2749;53.576;9.822;2023-02-28T09:01:34;3.00;;;1.10;;
5452;SDS011;2749;53.576;9.822;2023-02-28T09:04:01;1.67;;;1.30;;
5452;SDS011;2749;53.576;9.822;2023-02-28T09:06:27;4.20;;;1.10;;
5452;SDS011;2749;53.576;9.822;2023-02-28T09:08:55;3.73;;;1.17;;
5452;SDS011;2749;53.576;9.822;2023-02-28T09:11:23;1.10;;;1.00;;
5452;SDS011;2749;53.576;9.822;2023-02-28T09:13:49;2.70;;;1.40;;
5452;SDS011;2749;53.576;9.822;2023-02-28T09:16:15;1.03;;;0.90;;
5452;SDS011;2749;53.576;9.822;2023-02-28T09:18:41;1.00;;;1.00;;
5452;SDS011;2749;53.576;9.822;2023-02-28T09:21:09;2.13;;;1.37;;
5452;SDS011;2749;53.576;9.822;2023-02-28T09:23:36;1.00;;;0.90;;
5452;SDS011;2749;53.576;9.822;2023-02-28T09:26:05;1.70;;;0.90;;
5452;SDS011;2749;53.576;9.822;2023-02-28T09:28:31;3.50;;;1.23;;
5452;SDS011;2749;53.576;9.822;2023-02-28T09:30:57;4.00;;;1.33;;
5452;SDS011;2749;53.576;9.822;2023-02-28T09:33:24;3.70;;;1.17;;
5452;SDS011;2749;53.576;9.822;2023-02-28T09:35:50;3.43;;;1.20;;
5452;SDS011;2749;53.576;9.822;2023-02-28T09:38:16;1.23;;;0.93;;
5452;SDS011;2749;53.576;9.822;2023-02-28T09:43:15;1.97;;;0.87;;
5452;SDS011;2749;53.576;9.822;2023-02-28T09:45:42;3.23;;;1.00;;
5452;SDS011;2749;53.576;9.822;2023-02-28T09:48:10;1.50;;;1.13;;
5452;SDS011;2749;53.576;9.822;2023-02-28T09:50:38;2.97;;;1.07;;
5452;SDS011;2749;53.576;9.822;2023-02-28T09:53:11;1.00;;;0.90;;
5452;SDS011;2749;53.576;9.822;2023-02-28T09:55:44;0.90;;;0.80;;
5452;SDS011;2749;53.576;9.822;2023-02-28T09:58:17;3.10;;;1.10;;
5452;SDS011;2749;53.576;9.822;2023-02-28T10:00:44;2.13;;;1.10;;
5452;SDS011;2749;53.576;9.822;2023-02-28T10:05:43;1.00;;;0.90;;
5452;SDS011;2749;53.576;9.822;2023-02-28T10:08:18;2.10;;;1.30;;
5452;SDS011;2749;53.576;9.822;2023-02-28T10:10:56;1.53;;;1.10;;
5452;SDS011;2749;53.576;9.822;2023-02-28T10:15:56;4.50;;;1.10;;
5452;SDS011;2749;53.576;9.822;2023-02-28T10:18:25;1.73;;;1.33;;
5452;SDS011;2749;53.576;9.822;2023-02-28T10:20:52;1.00;;;0.90;;
5452;SDS011;2749;53.576;9.822;2023-02-28T10:23:21;4.40;;;1.43;;
5452;SDS011;2749;53.576;9.822;2023-02-28T10:25:57;1.50;;;1.37;;
5452;SDS011;2749;53.576;9.822;2023-02-28T10:28:24;1.50;;;1.40;;
5452;SDS011;2749;53.576;9.822;2023-02-28T10:30:51;3.83;;;2.10;;
5452;SDS011;2749;53.576;9.822;2023-02-28T10:33:22;2.20;;;1.13;;
5452;SDS011;2749;53.576;9.822;2023-02-28T10:35:49;2.80;;;1.70;;
5452;SDS011;2749;53.576;9.822;2023-02-28T10:38:23;2.13;;;1.50;;
5452;SDS011;2749;53.576;9.822;2023-02-28T10:40:50;4.30;;;1.37;;
5452;SDS011;2749;53.576;9.822;2023-02-28T10:43:18;2.80;;;1.70;;
5452;SDS011;2749;53.576;9.822;2023-02-28T10:45:55;1.73;;;1.40;;
5452;SDS011;2749;53.576;9.822;2023-02-28T10:48:27;1.77;;;1.63;;
5452;SDS011;2749;53.576;9.822;2023-02-28T10:50:55;2.73;;;1.60;;
5452;SDS011;2749;53.576;9.822;2023-02-28T10:55:56;1.53;;;1.27;;
5452;SDS011;2749;53.576;9.822;2023-02-28T10:58:23;1.70;;;1.40;;
5452;SDS011;2749;53.576;9.822;2023-02-28T11:00:49;2.87;;;2.10;;
5452;SDS011;2749;53.576;9.822;2023-02-28T11:03:23;1.93;;;1.20;;
5452;SDS011;2749;53.576;9.822;2023-02-28T11:05:49;5.67;;;2.27;;
5452;SDS011;2749;53.576;9.822;2023-02-28T11:08:16;2.20;;;2.00;;
5452;SDS011;2749;53.576;9.822;2023-02-28T11:10:53;3.43;;;1.40;;
5452;SDS011;2749;53.576;9.822;2023-02-28T11:13:20;9.17;;;2.07;;
5452;SDS011;2749;53.576;9.822;2023-02-28T11:15:51;2.57;;;1.83;;
5452;SDS011;2749;53.576;9.822;2023-02-28T11:18:20;2.90;;;1.60;;
5452;SDS011;2749;53.576;9.822;2023-02-28T11:20:48;2.00;;;1.47;;
5452;SDS011;2749;53.576;9.822;2023-02-28T11:23:15;2.03;;;1.60;;
5452;SDS011;2749;53.576;9.822;2023-02-28T11:25:45;2.73;;;1.47;;
5452;SDS011;2749;53.576;9.822;2023-02-28T11:28:23;3.77;;;1.63;;
5452;SDS011;2749;53.576;9.822;2023-02-28T11:31:00;2.27;;;1.50;;
5452;SDS011;2749;53.576;9.822;2023-02-28T11:35:53;3.23;;;1.87;;
5452;SDS011;2749;53.576;9.822;2023-02-28T11:38:20;2.23;;;1.53;;
5452;SDS011;2749;53.576;9.822;2023-02-28T11:46:13;3.37;;;1.50;;
5452;SDS011;2749;53.576;9.822;2023-02-28T11:49:05;1.90;;;1.10;;
5452;SDS011;2749;53.576;9.822;2023-02-28T11:54:23;2.90;;;1.53;;
5452;SDS011;2749;53.576;9.822;2023-02-28T11:56:51;1.83;;;1.60;;
5452;SDS011;2749;53.576;9.822;2023-02-28T12:09:44;4.37;;;1.87;;
5452;SDS011;2749;53.576;9.822;2023-02-28T12:12:23;4.30;;;1.67;;
5452;SDS011;2749;53.576;9.822;2023-02-28T12:20:14;3.20;;;1.33;;
5452;SDS011;2749;53.576;9.822;2023-02-28T12:23:00;4.17;;;2.20;;
5452;SDS011;2749;53.576;9.822;2023-02-28T12:25:45;3.70;;;1.50;;
5452;SDS011;2749;53.576;9.822;2023-02-28T12:28:14;7.10;;;1.43;;
5452;SDS011;2749;53.576;9.822;2023-02-28T12:30:46;3.37;;;1.67;;
5452;SDS011;2749;53.576;9.822;2023-02-28T12:33:15;3.17;;;1.90;;
5452;SDS011;2749;53.576;9.822;2023-02-28T12:38:22;2.10;;;1.20;;
5452;SDS011;2749;53.576;9.822;2023-02-28T12:43:37;3.83;;;1.77;;
5452;SDS011;2749;53.576;9.822;2023-02-28T12:46:12;6.40;;;2.00;;
5452;SDS011;2749;53.576;9.822;2023-02-28T12:48:42;1.87;;;1.47;;
5452;SDS011;2749;53.576;9.822;2023-02-28T12:51:08;3.93;;;2.30;;
5452;SDS011;2749;53.576;9.822;2023-02-28T12:53:40;1.60;;;1.40;;
5452;SDS011;2749;53.576;9.822;2023-02-28T12:59:18;3.13;;;1.77;;
5452;SDS011;2749;53.576;9.822;2023-02-28T13:02:01;2.00;;;1.30;;
5452;SDS011;2749;53.576;9.822;2023-02-28T13:04:38;2.30;;;2.07;;
5452;SDS011;2749;53.576;9.822;2023-02-28T13:07:10;1.77;;;1.60;;
5452;SDS011;2749;53.576;9.822;2023-02-28T13:09:50;1.93;;;1.50;;
5452;SDS011;2749;53.576;9.822;2023-02-28T13:12:17;4.40;;;2.03;;
5452;SDS011;2749;53.576;9.822;2023-02-28T13:14:43;2.20;;;1.63;;
5452;SDS011;2749;53.576;9.822;2023-02-28T13:19:42;2.70;;;1.67;;
5452;SDS011;2749;53.576;9.822;2023-02-28T13:24:51;6.97;;;2.20;;
5452;SDS011;2749;53.576;9.822;2023-02-28T13:27:24;1.77;;;1.33;;
5452;SDS011;2749;53.576;9.822;2023-02-28T13:29:57;2.53;;;1.60;;
5452;SDS011;2749;53.576;9.822;2023-02-28T13:42:23;1.83;;;1.63;;
5452;SDS011;2749;53.576;9.822;2023-02-28T13:50:26;2.23;;;2.03;;
5452;SDS011;2749;53.576;9.822;2023-02-28T13:55:34;2.43;;;1.90;;
5452;SDS011;2749;53.576;9.822;2023-02-28T13:58:09;2.33;;;1.80;;
5452;SDS011;2749;53.576;9.822;2023-02-28T14:03:23;9.63;;;2.30;;
5452;SDS011;2749;53.576;9.822;2023-02-28T14:06:07;3.17;;;1.97;;
5452;SDS011;2749;53.576;9.822;2023-02-28T14:08:34;3.87;;;2.00;;
5452;SDS011;2749;53.576;9.822;2023-02-28T14:11:05;3.03;;;1.60;;
5452;SDS011;2749;53.576;9.822;2023-02-28T14:13:39;4.23;;;2.00;;
5452;SDS011;2749;53.576;9.822;2023-02-28T14:16:09;2.30;;;1.43;;
5452;SDS011;2749;53.576;9.822;2023-02-28T14:18:37;2.07;;;1.50;;
5452;SDS011;2749;53.576;9.822;2023-02-28T14:23:42;1.53;;;1.40;;
5452;SDS011;2749;53.576;9.822;2023-02-28T14:31:15;3.33;;;1.50;;
5452;SDS011;2749;53.576;9.822;2023-02-28T14:33:57;5.27;;;1.97;;
5452;SDS011;2749;53.576;9.822;2023-02-28T14:36:32;2.60;;;1.77;;
5452;SDS011;2749;53.576;9.822;2023-02-28T14:39:32;2.57;;;1.87;;
5452;SDS011;2749;53.576;9.822;2023-02-28T14:41:51;2.13;;;1.63;;
5452;SDS011;2749;53.576;9.822;2023-02-28T14:44:21;2.17;;;1.40;;
5452;SDS011;2749;53.576;9.822;2023-02-28T14:46:48;3.37;;;1.90;;
5452;SDS011;2749;53.576;9.822;2023-02-28T14:49:18;2.80;;;1.77;;
5452;SDS011;2749;53.576;9.822;2023-02-28T14:51:45;2.37;;;2.17;;
5452;SDS011;2749;53.576;9.822;2023-02-28T14:54:13;6.23;;;2.23;;
5452;SDS011;2749;53.576;9.822;2023-02-28T14:56:40;2.00;;;1.70;;
5452;SDS011;2749;53.576;9.822;2023-02-28T14:59:21;4.00;;;2.20;;
5452;SDS011;2749;53.576;9.822;2023-02-28T15:01:48;2.50;;;2.20;;
5452;SDS011;2749;53.576;9.822;2023-02-28T15:04:18;2.57;;;2.20;;
5452;SDS011;2749;53.576;9.822;2023-02-28T15:06:46;2.27;;;1.93;;
5452;SDS011;2749;53.576;9.822;2023-02-28T15:09:16;5.73;;;3.73;;
5452;SDS011;2749;53.576;9.822;2023-02-28T15:11:45;2.10;;;1.80;;
5452;SDS011;2749;53.576;9.822;2023-02-28T15:14:15;2.60;;;2.40;;
5452;SDS011;2749;53.576;9.822;2023-02-28T15:16:43;2.80;;;2.50;;
5452;SDS011;2749;53.576;9.822;2023-02-28T15:19:14;2.20;;;2.00;;
5452;SDS011;2749;53.576;9.822;2023-02-28T15:21:44;3.10;;;1.70;;
5452;SDS011;2749;53.576;9.822;2023-02-28T15:26:57;4.72;;;3.10;;
5452;SDS011;2749;53.576;9.822;2023-02-28T15:29:24;2.87;;;2.47;;
5452;SDS011;2749;53.576;9.822;2023-02-28T15:31:58;2.83;;;1.80;;
5452;SDS011;2749;53.576;9.822;2023-02-28T15:34:36;2.90;;;2.13;;
5452;SDS011;2749;53.576;9.822;2023-02-28T15:37:06;1.40;;;1.30;;
5452;SDS011;2749;53.576;9.822;2023-02-28T15:39:32;2.00;;;1.50;;
5452;SDS011;2749;53.576;9.822;2023-02-28T15:42:10;2.17;;;1.60;;
5452;SDS011;2749;53.576;9.822;2023-02-28T15:44:36;2.63;;;2.30;;
5452;SDS011;2749;53.576;9.822;2023-02-28T15:47:06;2.03;;;1.50;;
5452;SDS011;2749;53.576;9.822;2023-02-28T15:49:40;4.03;;;1.63;;
5452;SDS011;2749;53.576;9.822;2023-02-28T15:52:12;3.10;;;1.90;;
5452;SDS011;2749;53.576;9.822;2023-02-28T15:54:39;2.80;;;2.40;;
5452;SDS011;2749;53.576;9.822;2023-02-28T15:57:05;3.53;;;1.97;;
5452;SDS011;2749;53.576;9.822;2023-02-28T15:59:33;2.80;;;1.67;;
5452;SDS011;2749;53.576;9.822;2023-02-28T16:02:04;6.40;;;2.27;;
5452;SDS011;2749;53.576;9.822;2023-02-28T16:04:36;2.67;;;2.33;;
5452;SDS011;2749;53.576;9.822;2023-02-28T16:07:03;2.90;;;2.30;;
5452;SDS011;2749;53.576;9.822;2023-02-28T16:09:30;4.20;;;2.17;;
5452;SDS011;2749;53.576;9.822;2023-02-28T16:11:56;2.53;;;1.50;;
5452;SDS011;2749;53.576;9.822;2023-02-28T16:14:26;3.43;;;2.37;;
5452;SDS011;2749;53.576;9.822;2023-02-28T16:16:55;5.50;;;1.80;;
5452;SDS011;2749;53.576;9.822;2023-02-28T16:19:22;4.47;;;1.53;;
5452;SDS011;2749;53.576;9.822;2023-02-28T16:21:48;1.87;;;1.70;;
5452;SDS011;2749;53.576;9.822;2023-02-28T16:24:14;2.90;;;1.57;;
5452;SDS011;2749;53.576;9.822;2023-02-28T16:26:40;2.70;;;2.00;;
5452;SDS011;2749;53.576;9.822;2023-02-28T16:29:08;2.87;;;2.20;;
5452;SDS011;2749;53.576;9.822;2023-02-28T16:31:35;3.43;;;2.13;;
5452;SDS011;2749;53.576;9.822;2023-02-28T16:34:02;2.93;;;1.67;;
5452;SDS011;2749;53.576;9.822;2023-02-28T16:36:28;2.03;;;1.70;;
5452;SDS011;2749;53.576;9.822;2023-02-28T16:38:54;3.13;;;1.90;;
5452;SDS011;2749;53.576;9.822;2023-02-28T16:41:22;4.63;;;3.17;;
5452;SDS011;2749;53.576;9.822;2023-02-28T16:43:50;4.20;;;3.20;;
5452;SDS011;2749;53.576;9.822;2023-02-28T16:46:16;3.30;;;3.00;;
5452;SDS011;2749;53.576;9.822;2023-02-28T16:48:46;4.30;;;3.00;;
5452;SDS011;2749;53.576;9.822;2023-02-28T16:51:16;4.00;;;2.53;;
5452;SDS011;2749;53.576;9.822;2023-02-28T16:53:43;5.30;;;2.50;;
5452;SDS011;2749;53.576;9.822;2023-02-28T16:56:17;4.30;;;2.23;;
5452;SDS011;2749;53.576;9.822;2023-02-28T16:58:43;3.27;;;2.90;;
5452;SDS011;2749;53.576;9.822;2023-02-28T17:01:09;2.90;;;1.80;;
5452;SDS011;2749;53.576;9.822;2023-02-28T17:03:36;3.77;;;2.80;;
5452;SDS011;2749;53.576;9.822;2023-02-28T17:06:02;3.50;;;2.17;;
5452;SDS011;2749;53.576;9.822;2023-02-28T17:08:29;3.57;;;2.93;;
5452;SDS011;2749;53.576;9.822;2023-02-28T17:10:56;6.33;;;2.03;;